createdAt,value
2022-12-01T00:00:58.722Z,5.53
2022-12-01T00:06:01.962Z,5.55
2022-12-01T00:11:12.108Z,5.54
2022-12-01T00:16:16.329Z,5.52
2022-12-01T00:21:20.315Z,5.58
2022-12-01T00:26:22.468Z,5.56
2022-12-01T00:31:24.751Z,5.54
2022-12-01T00:36:26.252Z,5.55
2022-12-01T00:41:27.755Z,5.54
2022-12-01T00:46:29.477Z,5.53
2022-12-01T00:51:31.125Z,5.50
2022-12-01T00:56:32.626Z,5.46
2022-12-01T01:01:35.136Z,5.43
2022-12-01T01:06:37.822Z,5.36
2022-12-01T01:11:39.667Z,5.31
2022-12-01T01:16:41.259Z,5.34
2022-12-01T01:21:42.785Z,5.36
2022-12-01T01:26:44.468Z,5.27
2022-12-01T01:31:45.939Z,5.13
2022-12-01T01:36:47.410Z,5.03
2022-12-01T01:41:48.963Z,4.94
2022-12-01T01:46:50.796Z,4.79
2022-12-01T01:51:53.845Z,4.64
2022-12-01T01:56:59.939Z,4.57
2022-12-01T02:02:08.488Z,4.46
2022-12-01T02:07:12.752Z,4.39
2022-12-01T02:12:39.666Z,4.34
2022-12-01T02:17:50.190Z,4.36
2022-12-01T02:23:10.453Z,4.44
2022-12-01T02:28:51.074Z,4.54
2022-12-01T02:34:18.766Z,4.63
2022-12-01T02:39:35.405Z,4.70
2022-12-01T02:44:41.792Z,4.71
2022-12-01T02:49:49.523Z,4.72
2022-12-01T02:54:53.049Z,4.68
2022-12-01T02:59:55.989Z,4.79
2022-12-01T03:05:10.023Z,4.81
2022-12-01T03:10:24.171Z,4.84
2022-12-01T03:15:48.127Z,4.80
2022-12-01T03:21:05.450Z,4.74
2022-12-01T03:26:11.659Z,4.71
2022-12-01T03:31:18.323Z,4.70
2022-12-01T03:36:27.035Z,4.67
2022-12-01T03:41:38.183Z,4.67
2022-12-01T03:46:50.220Z,4.62
2022-12-01T03:52:29.028Z,4.56
2022-12-01T03:57:36.130Z,4.48
2022-12-01T04:02:38.138Z,4.33
2022-12-01T04:07:40.123Z,4.30
2022-12-01T04:12:41.649Z,4.26
2022-12-01T04:17:44.473Z,4.21
2022-12-01T04:22:46.071Z,4.17
2022-12-01T04:27:47.670Z,4.19
2022-12-01T04:32:49.136Z,4.20
2022-12-01T04:37:50.597Z,4.14
2022-12-01T04:42:52.092Z,4.20
2022-12-01T04:47:53.545Z,4.23
2022-12-01T04:52:55.111Z,4.30
2022-12-01T04:57:56.572Z,4.33
2022-12-01T05:02:59.180Z,4.37
2022-12-01T05:08:00.826Z,4.45
2022-12-01T05:13:03.522Z,4.51
2022-12-01T05:18:06.053Z,4.48
2022-12-01T05:23:10.809Z,4.52
2022-12-01T05:28:15.193Z,4.54
2022-12-01T05:33:16.996Z,4.56
2022-12-01T05:38:19.182Z,4.62
2022-12-01T05:43:28.369Z,4.64
2022-12-01T05:48:31.173Z,4.68
2022-12-01T05:53:32.792Z,4.72
2022-12-01T05:58:35.154Z,4.72
2022-12-01T06:03:36.727Z,4.74
2022-12-01T06:08:38.277Z,4.74
2022-12-01T06:13:39.761Z,4.73
2022-12-01T06:18:41.276Z,4.74
2022-12-01T06:23:42.838Z,4.78
2022-12-01T06:28:44.297Z,4.84
2022-12-01T06:33:45.806Z,4.86
2022-12-01T06:38:47.331Z,4.89
2022-12-01T06:43:48.822Z,4.90
2022-12-01T06:48:50.480Z,4.90
2022-12-01T06:53:55.171Z,4.94
2022-12-01T06:58:57.323Z,4.97
2022-12-01T07:03:59.202Z,4.99
2022-12-01T07:09:00.709Z,5.02
2022-12-01T07:14:02.583Z,5.04
2022-12-01T07:19:04.105Z,5.07
2022-12-01T07:24:05.937Z,5.09
2022-12-01T07:29:08.740Z,5.07
2022-12-01T07:34:13.183Z,5.07
2022-12-01T07:39:14.702Z,5.08
2022-12-01T07:44:16.234Z,5.05
2022-12-01T07:49:17.833Z,4.93
2022-12-01T07:54:21.216Z,4.83
2022-12-01T07:59:22.777Z,4.76
2022-12-01T08:04:24.352Z,4.70
2022-12-01T08:09:25.932Z,4.63
2022-12-01T08:14:27.405Z,4.57
2022-12-01T08:19:29.342Z,4.56
2022-12-01T08:24:30.844Z,4.48
2022-12-01T08:29:32.362Z,4.46
2022-12-01T08:34:38.288Z,4.50
2022-12-01T08:39:39.737Z,4.49
2022-12-01T08:44:41.238Z,4.50
2022-12-01T08:49:42.771Z,4.67
2022-12-01T08:54:44.200Z,4.80
2022-12-01T08:59:45.697Z,5.02
2022-12-01T09:04:47.151Z,5.18
2022-12-01T09:09:48.971Z,5.32
2022-12-01T09:14:50.752Z,5.43
2022-12-01T09:19:52.406Z,5.57
2022-12-01T09:24:53.981Z,5.73
2022-12-01T09:29:55.440Z,5.87
2022-12-01T09:34:56.972Z,6.03
2022-12-01T09:39:58.429Z,6.22
2022-12-01T09:45:02.722Z,6.33
2022-12-01T09:50:23.949Z,6.46
2022-12-01T09:55:26.464Z,6.56
2022-12-01T10:00:33.165Z,6.63
2022-12-01T10:06:18.064Z,6.70
2022-12-01T10:11:24.557Z,6.72
2022-12-01T10:16:40.711Z,6.74
2022-12-01T10:22:13.137Z,6.76
2022-12-01T10:27:51.470Z,6.78
2022-12-01T10:32:58.873Z,6.97
2022-12-01T10:38:04.037Z,7.05
2022-12-01T10:43:05.585Z,7.14
2022-12-01T10:48:21.778Z,6.98
2022-12-01T10:53:23.250Z,7.08
2022-12-01T10:58:25.868Z,7.06
2022-12-01T11:03:33.500Z,6.94
2022-12-01T11:08:50.725Z,6.94
2022-12-01T11:13:53.014Z,7.02
2022-12-01T11:19:21.773Z,6.85
2022-12-01T11:24:55.482Z,6.98
2022-12-01T11:30:20.190Z,7.00
2022-12-01T11:35:25.441Z,7.03
2022-12-01T11:40:30.444Z,6.74
2022-12-01T11:45:40.032Z,6.76
2022-12-01T11:50:43.552Z,6.86
2022-12-01T11:55:45.050Z,6.90
2022-12-01T12:00:53.747Z,6.82
2022-12-01T12:06:39.845Z,6.70
2022-12-01T12:12:15.678Z,6.63
2022-12-01T12:17:26.480Z,6.53
2022-12-01T12:22:37.911Z,6.47
2022-12-01T12:28:08.584Z,6.38
2022-12-01T12:33:18.142Z,6.44
2022-12-01T12:38:28.791Z,6.40
2022-12-01T12:43:44.669Z,6.46
2022-12-01T12:49:19.753Z,6.41
2022-12-01T12:54:30.499Z,6.34
2022-12-01T12:59:31.914Z,6.36
2022-12-01T13:04:39.505Z,6.43
2022-12-01T13:09:46.101Z,6.37
2022-12-01T13:15:00.841Z,6.35
2022-12-01T13:20:04.358Z,6.34
2022-12-01T13:25:06.342Z,6.27
2022-12-01T13:30:21.271Z,6.20
2022-12-01T13:35:29.980Z,6.17
2022-12-01T13:40:31.530Z,6.18
2022-12-01T13:45:36.609Z,6.24
2022-12-01T13:50:53.648Z,6.29
2022-12-01T13:56:04.155Z,6.17
2022-12-01T14:01:25.935Z,6.16
2022-12-01T14:06:48.912Z,6.18
2022-12-01T14:12:16.555Z,6.20
2022-12-01T14:17:28.518Z,6.30
2022-12-01T14:22:35.120Z,6.38
2022-12-01T14:27:43.700Z,6.41
2022-12-01T14:32:45.163Z,6.48
2022-12-01T14:37:49.679Z,6.51
2022-12-01T14:43:14.015Z,6.48
2022-12-01T14:48:34.643Z,6.51
2022-12-01T14:53:40.756Z,6.49
2022-12-01T14:58:59.705Z,6.43
2022-12-01T15:04:03.673Z,6.35
2022-12-01T15:09:32.953Z,6.34
2022-12-01T15:14:47.374Z,6.23
2022-12-01T15:19:49.115Z,6.17
2022-12-01T15:24:51.607Z,6.10
2022-12-01T15:29:54.558Z,6.02
2022-12-01T15:34:56.854Z,5.99
2022-12-01T15:40:54.012Z,5.99
2022-12-01T15:45:25.409Z,5.96
2022-12-01T15:50:26.964Z,5.93
2022-12-01T15:55:31.923Z,5.91
2022-12-01T16:00:33.727Z,5.89
2022-12-01T16:05:36.276Z,5.90
2022-12-01T16:10:37.733Z,5.94
2022-12-01T16:15:44.943Z,5.91
2022-12-01T16:20:46.298Z,5.86
2022-12-01T16:25:48.519Z,5.84
2022-12-01T16:30:51.925Z,5.82
2022-12-01T16:35:54.581Z,5.86
2022-12-01T16:40:59.062Z,5.88
2022-12-01T16:46:03.911Z,5.89
2022-12-01T16:51:07.747Z,5.88
2022-12-01T16:56:12.875Z,5.90
2022-12-01T17:01:14.462Z,5.87
2022-12-01T17:06:20.371Z,5.87
2022-12-01T17:11:21.885Z,5.83
2022-12-01T17:16:23.470Z,5.84
2022-12-01T17:21:25.066Z,5.89
2022-12-01T17:26:26.500Z,5.89
2022-12-01T17:31:28.112Z,5.91
2022-12-01T17:36:31.231Z,5.86
2022-12-01T17:41:35.715Z,5.84
2022-12-01T17:46:38.501Z,5.83
2022-12-01T17:51:40.926Z,5.87
2022-12-01T17:56:42.789Z,5.80
2022-12-01T18:01:44.459Z,5.81
2022-12-01T18:06:49.316Z,5.79
2022-12-01T18:11:58.759Z,5.75
2022-12-01T18:17:00.333Z,5.75
2022-12-01T18:22:01.822Z,5.77
2022-12-01T18:27:03.332Z,5.73
2022-12-01T18:32:05.195Z,5.75
2022-12-01T18:37:06.781Z,5.74
2022-12-01T18:42:08.318Z,5.66
2022-12-01T18:47:10.219Z,5.63
2022-12-01T18:52:11.760Z,5.46
2022-12-01T18:57:14.633Z,5.51
2022-12-01T19:02:16.261Z,5.55
2022-12-01T19:07:17.736Z,5.41
2022-12-01T19:12:19.274Z,5.34
2022-12-01T19:17:20.754Z,5.24
2022-12-01T19:22:22.245Z,5.12
2022-12-01T19:27:23.793Z,5.17
2022-12-01T19:32:25.696Z,5.16
2022-12-01T19:37:27.242Z,4.96
2022-12-01T19:42:30.135Z,4.96
2022-12-01T19:47:32.996Z,4.87
2022-12-01T19:52:36.043Z,4.94
2022-12-01T19:57:37.512Z,4.85
2022-12-01T20:02:39.075Z,4.72
2022-12-01T20:07:40.552Z,4.54
2022-12-01T20:12:42.108Z,4.60
2022-12-01T20:17:43.630Z,4.61
2022-12-01T20:22:45.092Z,4.57
2022-12-01T20:27:46.543Z,4.62
2022-12-01T20:32:47.995Z,4.65
2022-12-01T20:37:49.466Z,4.57
2022-12-01T20:42:50.938Z,4.53
2022-12-01T20:47:52.801Z,4.56
2022-12-01T20:52:54.309Z,4.56
2022-12-01T20:57:55.799Z,4.38
2022-12-01T21:02:57.564Z,4.41
2022-12-01T21:08:00.900Z,4.39
2022-12-01T21:13:33.803Z,4.18
2022-12-01T21:18:51.994Z,4.38
2022-12-01T21:24:16.664Z,4.40
2022-12-01T21:29:27.389Z,4.39
2022-12-01T21:34:29.291Z,4.36
2022-12-01T21:39:30.802Z,4.42
2022-12-01T21:44:36.771Z,4.38
2022-12-01T21:49:39.651Z,4.38
2022-12-01T21:54:41.223Z,4.41
2022-12-01T21:59:42.678Z,4.35
2022-12-01T22:04:44.183Z,4.17
2022-12-01T22:09:45.833Z,4.09
2022-12-01T22:14:53.598Z,4.09
2022-12-01T22:19:56.854Z,4.20
2022-12-01T22:25:01.868Z,4.16
2022-12-01T22:30:06.001Z,4.20
2022-12-01T22:35:22.058Z,4.17
2022-12-01T22:41:02.137Z,4.08
2022-12-01T22:46:22.540Z,4.22
2022-12-01T22:51:30.742Z,4.11
2022-12-01T22:56:45.343Z,4.11
2022-12-01T23:01:48.532Z,4.06
2022-12-01T23:06:58.275Z,3.96
2022-12-01T23:12:11.720Z,3.98
2022-12-01T23:17:25.710Z,3.92
2022-12-01T23:22:27.168Z,3.93
2022-12-01T23:27:28.633Z,3.91
2022-12-01T23:32:30.066Z,3.92
2022-12-01T23:37:37.824Z,3.97
2022-12-01T23:42:39.158Z,3.97
2022-12-01T23:47:40.934Z,3.97
2022-12-01T23:52:42.444Z,3.99
2022-12-01T23:57:43.937Z,4.05
